Carlotta, California
Current Conditions -  °F | °C
As of 6:30 PM on Friday 24 Oct 2014 (Local Time) from KFOT Reporting Station
Clear Clear  
Wind Chill: 64°   Ceiling: Unl
Heat Index: 64°   Visibility: 10mi
Dew Point: 55°   Wind: 17mph
Humidity: 73%   Direction: 140°SE
Pressure: 29.72"   Gusts: 24mph
Location:  40.54°N, 124.06°W
Report Text: KFOT 250130Z AUTO 14015G21KT 10SM CLR 18/13 A2972 RMK AO1
Loading
Personal Weather Stations






























Interactive Weather Map
Tropical Storm Tracking
New forecast layout! Learn more

10-Day Weather Forecast

Advertisements
Track Severe Weather on mobile